sensor_id;sensor_type;location;lat;lon;timestamp;P1;durP1;ratioP1;P2;durP2;ratioP2
18685;SDS011;9473;52.342;13.110;2022-10-17T00:00:04;4.78;;;2.83;;
18685;SDS011;9473;52.342;13.110;2022-10-17T00:02:32;6.93;;;3.53;;
18685;SDS011;9473;52.342;13.110;2022-10-17T00:04:59;6.05;;;3.15;;
18685;SDS011;9473;52.342;13.110;2022-10-17T00:07:26;6.50;;;3.70;;
18685;SDS011;9473;52.342;13.110;2022-10-17T00:09:53;7.75;;;3.40;;
18685;SDS011;9473;52.342;13.110;2022-10-17T00:12:20;5.45;;;3.20;;
18685;SDS011;9473;52.342;13.110;2022-10-17T00:14:47;9.27;;;3.25;;
18685;SDS011;9473;52.342;13.110;2022-10-17T00:17:13;5.05;;;3.15;;
18685;SDS011;9473;52.342;13.110;2022-10-17T00:19:42;5.18;;;3.08;;
18685;SDS011;9473;52.342;13.110;2022-10-17T00:22:09;5.72;;;3.05;;
18685;SDS011;9473;52.342;13.110;2022-10-17T00:24:35;6.57;;;3.28;;
18685;SDS011;9473;52.342;13.110;2022-10-17T00:27:02;8.95;;;3.70;;
18685;SDS011;9473;52.342;13.110;2022-10-17T00:29:30;9.02;;;3.38;;
18685;SDS011;9473;52.342;13.110;2022-10-17T00:31:56;4.07;;;2.97;;
18685;SDS011;9473;52.342;13.110;2022-10-17T00:34:24;7.85;;;2.95;;
18685;SDS011;9473;52.342;13.110;2022-10-17T00:36:52;5.85;;;3.30;;
18685;SDS011;9473;52.342;13.110;2022-10-17T00:39:19;7.53;;;3.65;;
18685;SDS011;9473;52.342;13.110;2022-10-17T00:41:46;7.18;;;3.60;;
18685;SDS011;9473;52.342;13.110;2022-10-17T00:47:00;7.28;;;3.92;;
18685;SDS011;9473;52.342;13.110;2022-10-17T00:49:29;6.90;;;4.28;;
18685;SDS011;9473;52.342;13.110;2022-10-17T00:51:59;7.22;;;4.47;;
18685;SDS011;9473;52.342;13.110;2022-10-17T00:54:27;10.57;;;3.75;;
18685;SDS011;9473;52.342;13.110;2022-10-17T00:56:56;9.65;;;4.35;;
18685;SDS011;9473;52.342;13.110;2022-10-17T00:59:24;6.15;;;3.88;;
18685;SDS011;9473;52.342;13.110;2022-10-17T01:01:52;6.22;;;3.85;;
18685;SDS011;9473;52.342;13.110;2022-10-17T01:04:22;7.07;;;4.35;;
18685;SDS011;9473;52.342;13.110;2022-10-17T01:06:49;8.48;;;4.22;;
18685;SDS011;9473;52.342;13.110;2022-10-17T01:09:17;8.40;;;3.90;;
18685;SDS011;9473;52.342;13.110;2022-10-17T01:11:45;7.40;;;4.03;;
18685;SDS011;9473;52.342;13.110;2022-10-17T01:14:17;7.95;;;3.55;;
18685;SDS011;9473;52.342;13.110;2022-10-17T01:16:47;6.70;;;3.65;;
18685;SDS011;9473;52.342;13.110;2022-10-17T01:19:33;11.23;;;4.35;;
18685;SDS011;9473;52.342;13.110;2022-10-17T01:22:01;6.93;;;3.47;;
18685;SDS011;9473;52.342;13.110;2022-10-17T01:27:33;6.43;;;3.28;;
18685;SDS011;9473;52.342;13.110;2022-10-17T01:30:09;7.82;;;3.88;;
18685;SDS011;9473;52.342;13.110;2022-10-17T01:32:44;6.55;;;3.50;;
18685;SDS011;9473;52.342;13.110;2022-10-17T01:35:14;6.25;;;3.75;;
18685;SDS011;9473;52.342;13.110;2022-10-17T01:37:44;6.38;;;3.80;;
18685;SDS011;9473;52.342;13.110;2022-10-17T01:40:13;6.70;;;4.10;;
18685;SDS011;9473;52.342;13.110;2022-10-17T01:42:43;5.88;;;3.90;;
18685;SDS011;9473;52.342;13.110;2022-10-17T01:45:12;6.15;;;3.80;;
18685;SDS011;9473;52.342;13.110;2022-10-17T01:47:43;6.82;;;4.00;;
18685;SDS011;9473;52.342;13.110;2022-10-17T01:50:13;7.30;;;4.05;;
18685;SDS011;9473;52.342;13.110;2022-10-17T01:52:43;6.07;;;3.75;;
18685;SDS011;9473;52.342;13.110;2022-10-17T01:55:12;6.25;;;4.05;;
18685;SDS011;9473;52.342;13.110;2022-10-17T01:57:40;5.97;;;3.90;;
18685;SDS011;9473;52.342;13.110;2022-10-17T02:00:08;8.18;;;3.97;;
18685;SDS011;9473;52.342;13.110;2022-10-17T02:02:36;9.23;;;3.92;;
18685;SDS011;9473;52.342;13.110;2022-10-17T02:05:05;10.20;;;4.57;;
18685;SDS011;9473;52.342;13.110;2022-10-17T02:07:33;7.68;;;3.80;;
18685;SDS011;9473;52.342;13.110;2022-10-17T02:10:00;3.95;;;3.10;;
18685;SDS011;9473;52.342;13.110;2022-10-17T02:12:31;8.40;;;3.67;;
18685;SDS011;9473;52.342;13.110;2022-10-17T02:15:04;8.27;;;4.18;;
18685;SDS011;9473;52.342;13.110;2022-10-17T02:17:37;7.18;;;3.85;;
18685;SDS011;9473;52.342;13.110;2022-10-17T02:20:09;6.97;;;3.80;;
18685;SDS011;9473;52.342;13.110;2022-10-17T02:22:40;10.00;;;4.05;;
18685;SDS011;9473;52.342;13.110;2022-10-17T02:25:11;5.45;;;3.70;;
18685;SDS011;9473;52.342;13.110;2022-10-17T02:27:42;9.25;;;3.88;;
18685;SDS011;9473;52.342;13.110;2022-10-17T02:30:11;6.60;;;4.38;;
18685;SDS011;9473;52.342;13.110;2022-10-17T02:32:40;7.85;;;4.40;;
18685;SDS011;9473;52.342;13.110;2022-10-17T02:35:11;7.53;;;4.10;;
18685;SDS011;9473;52.342;13.110;2022-10-17T02:37:39;8.57;;;4.63;;
18685;SDS011;9473;52.342;13.110;2022-10-17T02:40:08;7.45;;;4.47;;
18685;SDS011;9473;52.342;13.110;2022-10-17T02:42:35;9.20;;;4.30;;
18685;SDS011;9473;52.342;13.110;2022-10-17T02:45:03;6.13;;;4.28;;
18685;SDS011;9473;52.342;13.110;2022-10-17T02:47:31;6.22;;;4.55;;
18685;SDS011;9473;52.342;13.110;2022-10-17T02:49:59;8.32;;;4.28;;
18685;SDS011;9473;52.342;13.110;2022-10-17T02:52:27;7.47;;;3.83;;
18685;SDS011;9473;52.342;13.110;2022-10-17T02:54:56;7.85;;;4.32;;
18685;SDS011;9473;52.342;13.110;2022-10-17T02:57:26;7.32;;;4.32;;
18685;SDS011;9473;52.342;13.110;2022-10-17T02:59:54;8.05;;;4.10;;
18685;SDS011;9473;52.342;13.110;2022-10-17T03:02:21;9.18;;;4.30;;
18685;SDS011;9473;52.342;13.110;2022-10-17T03:04:48;5.15;;;3.58;;
18685;SDS011;9473;52.342;13.110;2022-10-17T03:07:15;5.63;;;3.78;;
18685;SDS011;9473;52.342;13.110;2022-10-17T03:09:43;6.03;;;4.30;;
18685;SDS011;9473;52.342;13.110;2022-10-17T03:12:10;8.35;;;3.72;;
18685;SDS011;9473;52.342;13.110;2022-10-17T03:14:37;7.43;;;3.95;;
18685;SDS011;9473;52.342;13.110;2022-10-17T03:17:04;6.82;;;4.13;;
18685;SDS011;9473;52.342;13.110;2022-10-17T03:19:31;10.80;;;3.90;;
18685;SDS011;9473;52.342;13.110;2022-10-17T03:21:58;10.60;;;3.53;;
18685;SDS011;9473;52.342;13.110;2022-10-17T03:24:25;7.65;;;3.20;;
18685;SDS011;9473;52.342;13.110;2022-10-17T03:26:53;5.55;;;3.25;;
18685;SDS011;9473;52.342;13.110;2022-10-17T03:29:20;10.75;;;3.38;;
18685;SDS011;9473;52.342;13.110;2022-10-17T03:31:47;6.55;;;3.30;;
18685;SDS011;9473;52.342;13.110;2022-10-17T03:34:13;4.97;;;3.13;;
18685;SDS011;9473;52.342;13.110;2022-10-17T03:36:42;5.32;;;3.45;;
18685;SDS011;9473;52.342;13.110;2022-10-17T03:39:09;6.90;;;3.10;;
18685;SDS011;9473;52.342;13.110;2022-10-17T03:41:36;5.07;;;3.20;;
18685;SDS011;9473;52.342;13.110;2022-10-17T03:44:04;8.00;;;3.40;;
18685;SDS011;9473;52.342;13.110;2022-10-17T03:46:31;7.40;;;3.53;;
18685;SDS011;9473;52.342;13.110;2022-10-17T03:48:58;7.35;;;3.40;;
18685;SDS011;9473;52.342;13.110;2022-10-17T03:51:25;6.35;;;3.28;;
18685;SDS011;9473;52.342;13.110;2022-10-17T03:53:52;4.55;;;3.03;;
18685;SDS011;9473;52.342;13.110;2022-10-17T03:56:20;4.15;;;3.35;;
18685;SDS011;9473;52.342;13.110;2022-10-17T03:58:47;5.78;;;3.15;;
18685;SDS011;9473;52.342;13.110;2022-10-17T04:01:16;6.65;;;3.20;;
18685;SDS011;9473;52.342;13.110;2022-10-17T04:03:47;6.20;;;3.10;;
18685;SDS011;9473;52.342;13.110;2022-10-17T04:06:14;4.95;;;3.17;;
18685;SDS011;9473;52.342;13.110;2022-10-17T04:08:41;4.72;;;3.22;;
18685;SDS011;9473;52.342;13.110;2022-10-17T04:11:09;5.95;;;3.65;;
18685;SDS011;9473;52.342;13.110;2022-10-17T04:13:36;5.93;;;3.53;;
18685;SDS011;9473;52.342;13.110;2022-10-17T04:16:04;6.82;;;3.65;;
18685;SDS011;9473;52.342;13.110;2022-10-17T04:18:33;8.32;;;3.70;;
18685;SDS011;9473;52.342;13.110;2022-10-17T04:21:00;6.50;;;3.40;;
18685;SDS011;9473;52.342;13.110;2022-10-17T04:23:27;6.95;;;3.63;;
18685;SDS011;9473;52.342;13.110;2022-10-17T04:25:54;7.28;;;3.85;;
18685;SDS011;9473;52.342;13.110;2022-10-17T04:28:22;5.72;;;3.80;;
18685;SDS011;9473;52.342;13.110;2022-10-17T04:30:54;9.13;;;3.60;;
18685;SDS011;9473;52.342;13.110;2022-10-17T04:33:21;6.20;;;3.40;;
18685;SDS011;9473;52.342;13.110;2022-10-17T04:35:54;5.70;;;3.67;;
18685;SDS011;9473;52.342;13.110;2022-10-17T04:38:21;6.32;;;3.72;;
18685;SDS011;9473;52.342;13.110;2022-10-17T04:40:48;7.40;;;3.42;;
18685;SDS011;9473;52.342;13.110;2022-10-17T04:43:15;4.13;;;2.75;;
18685;SDS011;9473;52.342;13.110;2022-10-17T04:45:42;11.65;;;3.50;;
18685;SDS011;9473;52.342;13.110;2022-10-17T04:48:09;5.30;;;3.10;;
18685;SDS011;9473;52.342;13.110;2022-10-17T04:50:36;6.35;;;3.33;;
18685;SDS011;9473;52.342;13.110;2022-10-17T04:53:04;4.78;;;3.22;;
18685;SDS011;9473;52.342;13.110;2022-10-17T04:55:35;4.57;;;3.42;;
18685;SDS011;9473;52.342;13.110;2022-10-17T04:58:02;5.60;;;3.22;;
18685;SDS011;9473;52.342;13.110;2022-10-17T05:00:29;5.68;;;3.28;;
18685;SDS011;9473;52.342;13.110;2022-10-17T05:02:56;5.90;;;3.50;;
18685;SDS011;9473;52.342;13.110;2022-10-17T05:05:22;5.18;;;2.80;;
18685;SDS011;9473;52.342;13.110;2022-10-17T05:07:49;5.13;;;2.65;;
18685;SDS011;9473;52.342;13.110;2022-10-17T05:10:18;3.90;;;2.35;;
18685;SDS011;9473;52.342;13.110;2022-10-17T05:12:45;4.18;;;3.40;;
18685;SDS011;9473;52.342;13.110;2022-10-17T05:15:12;7.32;;;2.22;;
18685;SDS011;9473;52.342;13.110;2022-10-17T05:17:39;6.38;;;2.40;;
18685;SDS011;9473;52.342;13.110;2022-10-17T05:20:06;6.93;;;2.63;;
18685;SDS011;9473;52.342;13.110;2022-10-17T05:22:34;5.55;;;2.58;;
18685;SDS011;9473;52.342;13.110;2022-10-17T05:25:00;4.63;;;2.38;;
18685;SDS011;9473;52.342;13.110;2022-10-17T05:27:29;2.83;;;2.20;;
18685;SDS011;9473;52.342;13.110;2022-10-17T05:29:56;3.33;;;2.50;;
18685;SDS011;9473;52.342;13.110;2022-10-17T05:32:23;6.10;;;2.60;;
18685;SDS011;9473;52.342;13.110;2022-10-17T05:34:49;4.30;;;2.75;;
18685;SDS011;9473;52.342;13.110;2022-10-17T05:37:16;4.97;;;2.30;;
18685;SDS011;9473;52.342;13.110;2022-10-17T05:39:43;4.03;;;2.22;;
18685;SDS011;9473;52.342;13.110;2022-10-17T05:42:10;4.93;;;2.70;;
18685;SDS011;9473;52.342;13.110;2022-10-17T05:44:38;3.60;;;2.63;;
18685;SDS011;9473;52.342;13.110;2022-10-17T05:47:05;4.22;;;2.33;;
18685;SDS011;9473;52.342;13.110;2022-10-17T05:49:33;7.28;;;2.90;;
18685;SDS011;9473;52.342;13.110;2022-10-17T05:52:00;6.28;;;2.60;;
18685;SDS011;9473;52.342;13.110;2022-10-17T05:54:27;4.32;;;3.13;;
18685;SDS011;9473;52.342;13.110;2022-10-17T05:56:54;5.28;;;3.05;;
18685;SDS011;9473;52.342;13.110;2022-10-17T05:59:23;4.35;;;3.03;;
18685;SDS011;9473;52.342;13.110;2022-10-17T06:01:51;5.93;;;3.53;;
18685;SDS011;9473;52.342;13.110;2022-10-17T06:04:18;7.25;;;3.80;;
18685;SDS011;9473;52.342;13.110;2022-10-17T06:06:45;4.55;;;3.20;;
18685;SDS011;9473;52.342;13.110;2022-10-17T06:09:12;5.32;;;3.45;;
18685;SDS011;9473;52.342;13.110;2022-10-17T06:11:39;7.35;;;4.25;;
18685;SDS011;9473;52.342;13.110;2022-10-17T06:14:06;8.00;;;4.00;;
18685;SDS011;9473;52.342;13.110;2022-10-17T06:16:33;4.75;;;3.35;;
18685;SDS011;9473;52.342;13.110;2022-10-17T06:19:01;7.18;;;3.60;;
18685;SDS011;9473;52.342;13.110;2022-10-17T06:21:28;6.75;;;3.50;;
18685;SDS011;9473;52.342;13.110;2022-10-17T06:23:58;6.13;;;4.15;;
18685;SDS011;9473;52.342;13.110;2022-10-17T06:26:25;7.72;;;3.90;;
18685;SDS011;9473;52.342;13.110;2022-10-17T06:28:52;9.85;;;4.63;;
18685;SDS011;9473;52.342;13.110;2022-10-17T06:31:19;8.95;;;3.67;;
18685;SDS011;9473;52.342;13.110;2022-10-17T06:33:46;9.05;;;4.97;;
18685;SDS011;9473;52.342;13.110;2022-10-17T06:36:14;8.38;;;4.68;;
18685;SDS011;9473;52.342;13.110;2022-10-17T06:38:41;8.10;;;4.90;;
18685;SDS011;9473;52.342;13.110;2022-10-17T06:41:10;8.20;;;4.63;;
18685;SDS011;9473;52.342;13.110;2022-10-17T06:43:38;9.57;;;5.35;;
18685;SDS011;9473;52.342;13.110;2022-10-17T06:46:07;14.25;;;5.25;;
18685;SDS011;9473;52.342;13.110;2022-10-17T06:48:34;9.05;;;4.82;;
18685;SDS011;9473;52.342;13.110;2022-10-17T06:51:02;13.13;;;5.47;;
18685;SDS011;9473;52.342;13.110;2022-10-17T06:53:31;8.20;;;5.05;;
18685;SDS011;9473;52.342;13.110;2022-10-17T06:55:59;9.70;;;5.55;;
18685;SDS011;9473;52.342;13.110;2022-10-17T06:58:28;8.25;;;4.95;;
18685;SDS011;9473;52.342;13.110;2022-10-17T07:00:57;10.82;;;5.50;;
18685;SDS011;9473;52.342;13.110;2022-10-17T07:03:24;9.00;;;5.53;;
18685;SDS011;9473;52.342;13.110;2022-10-17T07:05:51;8.00;;;4.95;;
18685;SDS011;9473;52.342;13.110;2022-10-17T07:08:18;9.15;;;5.15;;
18685;SDS011;9473;52.342;13.110;2022-10-17T07:10:46;10.77;;;5.03;;
18685;SDS011;9473;52.342;13.110;2022-10-17T07:13:14;8.98;;;5.28;;
18685;SDS011;9473;52.342;13.110;2022-10-17T07:15:41;6.90;;;5.07;;
18685;SDS011;9473;52.342;13.110;2022-10-17T07:18:07;8.98;;;4.97;;
18685;SDS011;9473;52.342;13.110;2022-10-17T07:20:34;7.28;;;4.80;;
18685;SDS011;9473;52.342;13.110;2022-10-17T07:23:01;9.80;;;4.68;;
18685;SDS011;9473;52.342;13.110;2022-10-17T07:25:29;6.57;;;4.63;;
18685;SDS011;9473;52.342;13.110;2022-10-17T07:27:57;7.22;;;4.00;;
18685;SDS011;9473;52.342;13.110;2022-10-17T07:30:24;8.07;;;4.63;;
18685;SDS011;9473;52.342;13.110;2022-10-17T07:32:51;10.40;;;4.80;;
18685;SDS011;9473;52.342;13.110;2022-10-17T07:35:18;7.05;;;4.18;;
18685;SDS011;9473;52.342;13.110;2022-10-17T07:37:45;7.25;;;4.25;;
18685;SDS011;9473;52.342;13.110;2022-10-17T07:40:12;6.30;;;4.30;;
18685;SDS011;9473;52.342;13.110;2022-10-17T07:42:39;7.47;;;3.92;;
18685;SDS011;9473;52.342;13.110;2022-10-17T07:45:08;8.95;;;4.75;;
18685;SDS011;9473;52.342;13.110;2022-10-17T07:47:35;8.82;;;4.25;;
18685;SDS011;9473;52.342;13.110;2022-10-17T07:50:02;7.25;;;4.07;;
18685;SDS011;9473;52.342;13.110;2022-10-17T07:52:29;5.60;;;3.80;;
18685;SDS011;9473;52.342;13.110;2022-10-17T07:54:56;6.90;;;3.78;;
18685;SDS011;9473;52.342;13.110;2022-10-17T07:57:22;7.03;;;4.03;;
18685;SDS011;9473;52.342;13.110;2022-10-17T07:59:49;9.75;;;4.22;;
18685;SDS011;9473;52.342;13.110;2022-10-17T08:02:21;7.82;;;4.13;;
18685;SDS011;9473;52.342;13.110;2022-10-17T08:04:48;7.05;;;4.50;;
18685;SDS011;9473;52.342;13.110;2022-10-17T08:07:15;8.63;;;4.22;;
18685;SDS011;9473;52.342;13.110;2022-10-17T08:09:43;5.97;;;3.70;;
18685;SDS011;9473;52.342;13.110;2022-10-17T08:12:11;7.50;;;3.88;;
18685;SDS011;9473;52.342;13.110;2022-10-17T08:14:38;6.07;;;3.80;;
18685;SDS011;9473;52.342;13.110;2022-10-17T08:17:05;5.63;;;3.60;;
18685;SDS011;9473;52.342;13.110;2022-10-17T08:19:33;9.13;;;4.00;;
18685;SDS011;9473;52.342;13.110;2022-10-17T08:22:00;6.07;;;3.65;;
18685;SDS011;9473;52.342;13.110;2022-10-17T08:24:27;7.20;;;3.90;;
18685;SDS011;9473;52.342;13.110;2022-10-17T08:26:54;5.07;;;3.47;;
18685;SDS011;9473;52.342;13.110;2022-10-17T08:29:22;5.78;;;3.65;;
18685;SDS011;9473;52.342;13.110;2022-10-17T08:31:49;4.72;;;3.45;;
18685;SDS011;9473;52.342;13.110;2022-10-17T08:34:16;6.15;;;3.60;;
18685;SDS011;9473;52.342;13.110;2022-10-17T08:36:45;7.20;;;3.42;;
18685;SDS011;9473;52.342;13.110;2022-10-17T08:39:11;7.75;;;3.70;;
18685;SDS011;9473;52.342;13.110;2022-10-17T08:41:42;6.38;;;3.65;;
18685;SDS011;9473;52.342;13.110;2022-10-17T08:44:15;5.82;;;3.28;;
18685;SDS011;9473;52.342;13.110;2022-10-17T08:46:46;7.13;;;3.60;;
18685;SDS011;9473;52.342;13.110;2022-10-17T08:49:14;6.55;;;3.72;;
18685;SDS011;9473;52.342;13.110;2022-10-17T08:51:43;9.45;;;3.85;;
18685;SDS011;9473;52.342;13.110;2022-10-17T08:54:15;9.20;;;3.45;;
18685;SDS011;9473;52.342;13.110;2022-10-17T08:56:44;5.97;;;3.65;;
18685;SDS011;9473;52.342;13.110;2022-10-17T08:59:12;6.90;;;3.20;;
18685;SDS011;9473;52.342;13.110;2022-10-17T09:01:40;5.55;;;3.38;;
18685;SDS011;9473;52.342;13.110;2022-10-17T09:04:17;7.93;;;3.53;;
18685;SDS011;9473;52.342;13.110;2022-10-17T09:06:48;7.57;;;3.20;;
18685;SDS011;9473;52.342;13.110;2022-10-17T09:09:34;9.80;;;3.45;;
18685;SDS011;9473;52.342;13.110;2022-10-17T09:12:04;5.10;;;2.90;;
18685;SDS011;9473;52.342;13.110;2022-10-17T09:14:48;5.90;;;3.30;;
18685;SDS011;9473;52.342;13.110;2022-10-17T09:17:19;5.78;;;3.58;;
18685;SDS011;9473;52.342;13.110;2022-10-17T09:20:02;5.45;;;3.15;;
18685;SDS011;9473;52.342;13.110;2022-10-17T09:22:32;6.43;;;2.80;;
18685;SDS011;9473;52.342;13.110;2022-10-17T09:25:03;5.07;;;3.28;;
18685;SDS011;9473;52.342;13.110;2022-10-17T09:27:32;4.63;;;3.35;;
18685;SDS011;9473;52.342;13.110;2022-10-17T09:30:05;5.45;;;;;
18685;SDS011;9473;52.342;13.110;2022-10-17T09:32:38;5.82;;;3.20;;
18685;SDS011;9473;52.342;13.110;2022-10-17T09:35:07;5.80;;;3.05;;
18685;SDS011;9473;52.342;13.110;2022-10-17T09:37:37;4.82;;;3.10;;
18685;SDS011;9473;52.342;13.110;2022-10-17T09:40:06;4.72;;;2.72;;
18685;SDS011;9473;52.342;13.110;2022-10-17T09:42:34;4.80;;;2.83;;
18685;SDS011;9473;52.342;13.110;2022-10-17T09:45:02;7.75;;;2.95;;
18685;SDS011;9473;52.342;13.110;2022-10-17T09:47:33;5.28;;;2.97;;
18685;SDS011;9473;52.342;13.110;2022-10-17T09:50:00;5.07;;;3.28;;
18685;SDS011;9473;52.342;13.110;2022-10-17T09:52:28;6.03;;;2.70;;
18685;SDS011;9473;52.342;13.110;2022-10-17T09:54:57;5.13;;;2.58;;
18685;SDS011;9473;52.342;13.110;2022-10-17T09:57:26;7.75;;;2.85;;
18685;SDS011;9473;52.342;13.110;2022-10-17T09:59:57;5.65;;;2.70;;
18685;SDS011;9473;52.342;13.110;2022-10-17T10:02:25;4.55;;;2.67;;
18685;SDS011;9473;52.342;13.110;2022-10-17T10:04:59;6.18;;;2.97;;
18685;SDS011;9473;52.342;13.110;2022-10-17T10:07:27;4.45;;;3.15;;
18685;SDS011;9473;52.342;13.110;2022-10-17T10:09:54;7.07;;;2.80;;
18685;SDS011;9473;52.342;13.110;2022-10-17T10:12:23;5.25;;;3.00;;
18685;SDS011;9473;52.342;13.110;2022-10-17T10:14:52;3.58;;;2.60;;
18685;SDS011;9473;52.342;13.110;2022-10-17T10:17:27;3.42;;;2.67;;
18685;SDS011;9473;52.342;13.110;2022-10-17T10:19:54;8.10;;;2.88;;
18685;SDS011;9473;52.342;13.110;2022-10-17T10:22:21;4.18;;;2.58;;
18685;SDS011;9473;52.342;13.110;2022-10-17T10:27:30;4.07;;;2.35;;
18685;SDS011;9473;52.342;13.110;2022-10-17T10:29:59;4.75;;;2.53;;
18685;SDS011;9473;52.342;13.110;2022-10-17T10:32:26;5.85;;;2.63;;
18685;SDS011;9473;52.342;13.110;2022-10-17T10:34:54;6.60;;;2.45;;
18685;SDS011;9473;52.342;13.110;2022-10-17T10:37:22;3.40;;;2.17;;
18685;SDS011;9473;52.342;13.110;2022-10-17T10:39:50;10.50;;;2.58;;
18685;SDS011;9473;52.342;13.110;2022-10-17T10:42:27;4.75;;;2.60;;
18685;SDS011;9473;52.342;13.110;2022-10-17T10:44:57;3.95;;;2.67;;
18685;SDS011;9473;52.342;13.110;2022-10-17T10:47:27;5.57;;;2.67;;
18685;SDS011;9473;52.342;13.110;2022-10-17T10:50:06;2.97;;;2.30;;
18685;SDS011;9473;52.342;13.110;2022-10-17T10:52:34;3.83;;;2.28;;
18685;SDS011;9473;52.342;13.110;2022-10-17T10:55:09;4.05;;;2.50;;
18685;SDS011;9473;52.342;13.110;2022-10-17T10:57:40;5.75;;;2.22;;
18685;SDS011;9473;52.342;13.110;2022-10-17T11:00:08;4.68;;;2.65;;
18685;SDS011;9473;52.342;13.110;2022-10-17T11:02:41;7.15;;;2.30;;
18685;SDS011;9473;52.342;13.110;2022-10-17T11:05:11;4.65;;;2.28;;
18685;SDS011;9473;52.342;13.110;2022-10-17T11:07:41;4.43;;;2.30;;
18685;SDS011;9473;52.342;13.110;2022-10-17T11:10:11;4.65;;;2.40;;
18685;SDS011;9473;52.342;13.110;2022-10-17T11:12:40;3.33;;;2.28;;
18685;SDS011;9473;52.342;13.110;2022-10-17T11:15:15;4.80;;;2.50;;
18685;SDS011;9473;52.342;13.110;2022-10-17T11:17:48;5.38;;;2.40;;
18685;SDS011;9473;52.342;13.110;2022-10-17T11:20:17;7.70;;;2.70;;
18685;SDS011;9473;52.342;13.110;2022-10-17T11:22:46;3.78;;;2.38;;
18685;SDS011;9473;52.342;13.110;2022-10-17T11:25:15;3.10;;;2.22;;
18685;SDS011;9473;52.342;13.110;2022-10-17T11:27:45;4.30;;;2.42;;
18685;SDS011;9473;52.342;13.110;2022-10-17T11:30:12;4.18;;;2.60;;
18685;SDS011;9473;52.342;13.110;2022-10-17T11:32:41;4.07;;;2.05;;
18685;SDS011;9473;52.342;13.110;2022-10-17T11:35:14;3.35;;;2.30;;
18685;SDS011;9473;52.342;13.110;2022-10-17T11:37:45;10.75;;;2.28;;
18685;SDS011;9473;52.342;13.110;2022-10-17T11:40:14;5.03;;;2.30;;
18685;SDS011;9473;52.342;13.110;2022-10-17T11:42:44;8.35;;;2.30;;
18685;SDS011;9473;52.342;13.110;2022-10-17T11:45:19;10.88;;;2.45;;
18685;SDS011;9473;52.342;13.110;2022-10-17T11:47:49;4.60;;;2.03;;
18685;SDS011;9473;52.342;13.110;2022-10-17T11:50:21;4.75;;;2.28;;
18685;SDS011;9473;52.342;13.110;2022-10-17T11:52:51;3.35;;;2.25;;
18685;SDS011;9473;52.342;13.110;2022-10-17T11:55:19;5.57;;;2.40;;
18685;SDS011;9473;52.342;13.110;2022-10-17T11:57:51;4.68;;;2.33;;
18685;SDS011;9473;52.342;13.110;2022-10-17T12:00:29;6.80;;;2.00;;
18685;SDS011;9473;52.342;13.110;2022-10-17T12:02:59;4.80;;;2.20;;
18685;SDS011;9473;52.342;13.110;2022-10-17T12:05:32;6.50;;;2.17;;
18685;SDS011;9473;52.342;13.110;2022-10-17T12:08:03;6.05;;;2.03;;
18685;SDS011;9473;52.342;13.110;2022-10-17T12:10:33;4.35;;;2.30;;
18685;SDS011;9473;52.342;13.110;2022-10-17T12:15:50;4.78;;;2.38;;
18685;SDS011;9473;52.342;13.110;2022-10-17T12:18:17;3.20;;;2.25;;
18685;SDS011;9473;52.342;13.110;2022-10-17T12:20:46;4.78;;;2.03;;
18685;SDS011;9473;52.342;13.110;2022-10-17T12:23:22;6.25;;;2.50;;
18685;SDS011;9473;52.342;13.110;2022-10-17T12:25:51;4.53;;;2.20;;
18685;SDS011;9473;52.342;13.110;2022-10-17T12:28:20;6.05;;;2.15;;
18685;SDS011;9473;52.342;13.110;2022-10-17T12:30:53;6.07;;;2.70;;
18685;SDS011;9473;52.342;13.110;2022-10-17T12:33:28;5.07;;;2.50;;
18685;SDS011;9473;52.342;13.110;2022-10-17T12:42:29;12.52;;;1.90;;
18685;SDS011;9473;52.342;13.110;2022-10-17T12:48:12;6.38;;;1.90;;
18685;SDS011;9473;52.342;13.110;2022-10-17T12:50:59;3.45;;;2.00;;
18685;SDS011;9473;52.342;13.110;2022-10-17T12:53:28;6.93;;;2.20;;
18685;SDS011;9473;52.342;13.110;2022-10-17T12:56:03;3.80;;;2.00;;
18685;SDS011;9473;52.342;13.110;2022-10-17T12:58:32;3.55;;;2.00;;
18685;SDS011;9473;52.342;13.110;2022-10-17T13:01:00;7.25;;;2.17;;
18685;SDS011;9473;52.342;13.110;2022-10-17T13:03:27;6.05;;;2.10;;
18685;SDS011;9473;52.342;13.110;2022-10-17T13:05:58;5.07;;;2.25;;
18685;SDS011;9473;52.342;13.110;2022-10-17T13:08:27;3.70;;;1.92;;
18685;SDS011;9473;52.342;13.110;2022-10-17T13:10:55;6.13;;;1.90;;
18685;SDS011;9473;52.342;13.110;2022-10-17T13:13:22;5.45;;;2.42;;
18685;SDS011;9473;52.342;13.110;2022-10-17T13:16:04;5.80;;;2.17;;
18685;SDS011;9473;52.342;13.110;2022-10-17T13:18:31;5.00;;;1.80;;
18685;SDS011;9473;52.342;13.110;2022-10-17T13:20:59;3.47;;;1.77;;
18685;SDS011;9473;52.342;13.110;2022-10-17T13:23:30;7.20;;;1.95;;
18685;SDS011;9473;52.342;13.110;2022-10-17T13:26:05;5.53;;;1.95;;
18685;SDS011;9473;52.342;13.110;2022-10-17T13:28:38;7.45;;;2.05;;
18685;SDS011;9473;52.342;13.110;2022-10-17T13:31:06;5.93;;;2.10;;
18685;SDS011;9473;52.342;13.110;2022-10-17T13:33:34;4.82;;;2.08;;
18685;SDS011;9473;52.342;13.110;2022-10-17T13:36:03;7.97;;;2.10;;
18685;SDS011;9473;52.342;13.110;2022-10-17T13:38:33;7.43;;;1.90;;
18685;SDS011;9473;52.342;13.110;2022-10-17T13:41:01;2.97;;;1.90;;
18685;SDS011;9473;52.342;13.110;2022-10-17T13:43:28;5.88;;;2.22;;
18685;SDS011;9473;52.342;13.110;2022-10-17T13:45:58;6.13;;;2.20;;
18685;SDS011;9473;52.342;13.110;2022-10-17T13:48:31;4.15;;;2.08;;
18685;SDS011;9473;52.342;13.110;2022-10-17T13:51:00;4.25;;;1.90;;
18685;SDS011;9473;52.342;13.110;2022-10-17T13:53:30;5.78;;;1.95;;
18685;SDS011;9473;52.342;13.110;2022-10-17T13:56:00;4.63;;;2.10;;
18685;SDS011;9473;52.342;13.110;2022-10-17T13:58:30;6.75;;;2.00;;
18685;SDS011;9473;52.342;13.110;2022-10-17T14:01:04;6.50;;;2.20;;
18685;SDS011;9473;52.342;13.110;2022-10-17T14:03:32;3.67;;;1.90;;
18685;SDS011;9473;52.342;13.110;2022-10-17T14:06:07;4.38;;;2.00;;
18685;SDS011;9473;52.342;13.110;2022-10-17T14:08:45;6.00;;;1.85;;
18685;SDS011;9473;52.342;13.110;2022-10-17T14:11:21;3.42;;;1.83;;
18685;SDS011;9473;52.342;13.110;2022-10-17T14:13:50;3.60;;;2.05;;
18685;SDS011;9473;52.342;13.110;2022-10-17T14:16:19;4.50;;;1.88;;
18685;SDS011;9473;52.342;13.110;2022-10-17T14:18:48;4.85;;;2.00;;
18685;SDS011;9473;52.342;13.110;2022-10-17T14:21:18;6.40;;;2.10;;
18685;SDS011;9473;52.342;13.110;2022-10-17T14:23:46;4.55;;;2.03;;
18685;SDS011;9473;52.342;13.110;2022-10-17T14:26:14;4.57;;;2.00;;
18685;SDS011;9473;52.342;13.110;2022-10-17T14:28:44;3.67;;;2.10;;
18685;SDS011;9473;52.342;13.110;2022-10-17T14:31:16;3.67;;;1.80;;
18685;SDS011;9473;52.342;13.110;2022-10-17T14:33:51;6.38;;;1.88;;
18685;SDS011;9473;52.342;13.110;2022-10-17T14:36:18;6.07;;;2.10;;
18685;SDS011;9473;52.342;13.110;2022-10-17T14:38:46;4.15;;;2.03;;
18685;SDS011;9473;52.342;13.110;2022-10-17T14:41:19;4.32;;;1.88;;
18685;SDS011;9473;52.342;13.110;2022-10-17T14:43:52;5.57;;;1.90;;
18685;SDS011;9473;52.342;13.110;2022-10-17T14:46:20;3.45;;;1.90;;
18685;SDS011;9473;52.342;13.110;2022-10-17T14:48:51;3.85;;;2.10;;
18685;SDS011;9473;52.342;13.110;2022-10-17T14:51:20;2.42;;;1.60;;
18685;SDS011;9473;52.342;13.110;2022-10-17T14:53:58;2.90;;;2.00;;
18685;SDS011;9473;52.342;13.110;2022-10-17T14:56:27;4.82;;;2.13;;
18685;SDS011;9473;52.342;13.110;2022-10-17T14:59:00;3.47;;;2.08;;
18685;SDS011;9473;52.342;13.110;2022-10-17T15:01:29;6.55;;;2.08;;
18685;SDS011;9473;52.342;13.110;2022-10-17T15:03:58;4.03;;;2.00;;
18685;SDS011;9473;52.342;13.110;2022-10-17T15:06:26;5.90;;;1.80;;
18685;SDS011;9473;52.342;13.110;2022-10-17T15:08:53;6.95;;;1.95;;
18685;SDS011;9473;52.342;13.110;2022-10-17T15:11:20;7.45;;;2.17;;
18685;SDS011;9473;52.342;13.110;2022-10-17T15:13:46;5.88;;;2.20;;
18685;SDS011;9473;52.342;13.110;2022-10-17T15:16:14;2.53;;;1.80;;
18685;SDS011;9473;52.342;13.110;2022-10-17T15:18:43;7.72;;;2.55;;